sensor_id;sensor_type;location;lat;lon;timestamp;pressure;altitude;pressure_sealevel;temperature;humidity
28167;BME280;15455;53.376;-6.262;2023-02-25T00:01:05;101758.63;;;3.43;100.00
28167;BME280;15455;53.376;-6.262;2023-02-25T00:03:52;101755.06;;;3.40;100.00
28167;BME280;15455;53.376;-6.262;2023-02-25T00:06:38;101761.03;;;3.39;100.00
28167;BME280;15455;53.376;-6.262;2023-02-25T00:09:23;101764.09;;;3.30;100.00
28167;BME280;15455;53.376;-6.262;2023-02-25T00:12:08;101760.16;;;3.19;100.00
28167;BME280;15455;53.376;-6.262;2023-02-25T00:14:54;101770.28;;;3.14;100.00
28167;BME280;15455;53.376;-6.262;2023-02-25T00:17:40;101766.41;;;3.04;100.00
28167;BME280;15455;53.376;-6.262;2023-02-25T00:20:26;101770.69;;;3.04;100.00
28167;BME280;15455;53.376;-6.262;2023-02-25T00:23:11;101773.81;;;2.97;100.00
28167;BME280;15455;53.376;-6.262;2023-02-25T00:25:59;101775.00;;;2.85;100.00
28167;BME280;15455;53.376;-6.262;2023-02-25T00:28:45;101773.97;;;2.82;100.00
28167;BME280;15455;53.376;-6.262;2023-02-25T00:31:31;101766.47;;;2.86;100.00
28167;BME280;15455;53.376;-6.262;2023-02-25T00:34:17;101766.94;;;2.97;100.00
28167;BME280;15455;53.376;-6.262;2023-02-25T00:37:02;101761.25;;;3.04;100.00
28167;BME280;15455;53.376;-6.262;2023-02-25T00:39:49;101763.81;;;3.04;100.00
28167;BME280;15455;53.376;-6.262;2023-02-25T00:42:34;101763.06;;;3.07;100.00
28167;BME280;15455;53.376;-6.262;2023-02-25T00:45:19;101767.81;;;3.17;100.00
28167;BME280;15455;53.376;-6.262;2023-02-25T00:48:06;101770.19;;;3.32;100.00
28167;BME280;15455;53.376;-6.262;2023-02-25T00:50:53;101779.16;;;3.40;100.00
28167;BME280;15455;53.376;-6.262;2023-02-25T00:53:38;101785.34;;;3.44;100.00
28167;BME280;15455;53.376;-6.262;2023-02-25T00:56:25;101775.91;;;3.44;100.00
28167;BME280;15455;53.376;-6.262;2023-02-25T00:59:10;101775.78;;;3.41;100.00
28167;BME280;15455;53.376;-6.262;2023-02-25T01:01:56;101774.72;;;3.38;100.00
28167;BME280;15455;53.376;-6.262;2023-02-25T01:04:41;101768.03;;;3.41;100.00
28167;BME280;15455;53.376;-6.262;2023-02-25T01:07:26;101776.28;;;3.54;100.00
28167;BME280;15455;53.376;-6.262;2023-02-25T01:10:12;101773.97;;;3.60;100.00
28167;BME280;15455;53.376;-6.262;2023-02-25T01:12:58;101774.22;;;3.66;100.00
28167;BME280;15455;53.376;-6.262;2023-02-25T01:15:43;101777.06;;;3.72;100.00
28167;BME280;15455;53.376;-6.262;2023-02-25T01:18:28;101782.47;;;3.78;100.00
28167;BME280;15455;53.376;-6.262;2023-02-25T01:21:17;101774.81;;;3.80;100.00
28167;BME280;15455;53.376;-6.262;2023-02-25T01:24:13;101761.69;;;3.75;100.00
28167;BME280;15455;53.376;-6.262;2023-02-25T01:27:01;101762.13;;;3.65;100.00
28167;BME280;15455;53.376;-6.262;2023-02-25T01:29:47;101747.50;;;3.44;100.00
28167;BME280;15455;53.376;-6.262;2023-02-25T01:32:33;101748.47;;;3.27;100.00
28167;BME280;15455;53.376;-6.262;2023-02-25T01:35:19;101749.78;;;3.17;100.00
28167;BME280;15455;53.376;-6.262;2023-02-25T01:38:04;101753.50;;;3.04;100.00
28167;BME280;15455;53.376;-6.262;2023-02-25T01:40:56;101762.13;;;2.85;100.00
28167;BME280;15455;53.376;-6.262;2023-02-25T01:43:42;101762.06;;;2.66;100.00
28167;BME280;15455;53.376;-6.262;2023-02-25T01:46:28;101763.88;;;2.49;100.00
28167;BME280;15455;53.376;-6.262;2023-02-25T01:49:31;101762.56;;;2.39;100.00
28167;BME280;15455;53.376;-6.262;2023-02-25T01:52:21;101766.38;;;2.47;100.00
28167;BME280;15455;53.376;-6.262;2023-02-25T01:55:09;101762.09;;;2.48;100.00
28167;BME280;15455;53.376;-6.262;2023-02-25T01:57:57;101756.00;;;2.46;100.00
28167;BME280;15455;53.376;-6.262;2023-02-25T02:00:44;101757.69;;;2.45;100.00
28167;BME280;15455;53.376;-6.262;2023-02-25T02:03:32;101760.13;;;2.42;100.00
28167;BME280;15455;53.376;-6.262;2023-02-25T02:06:30;101763.34;;;2.38;100.00
28167;BME280;15455;53.376;-6.262;2023-02-25T02:09:20;101763.16;;;2.33;100.00
28167;BME280;15455;53.376;-6.262;2023-02-25T02:12:08;101774.13;;;2.47;100.00
28167;BME280;15455;53.376;-6.262;2023-02-25T02:14:54;101767.69;;;2.57;100.00
28167;BME280;15455;53.376;-6.262;2023-02-25T02:17:50;101780.34;;;2.70;100.00
28167;BME280;15455;53.376;-6.262;2023-02-25T02:20:52;101779.88;;;2.79;100.00
28167;BME280;15455;53.376;-6.262;2023-02-25T02:23:55;101782.41;;;2.77;100.00
28167;BME280;15455;53.376;-6.262;2023-02-25T02:26:59;101788.69;;;2.84;100.00
28167;BME280;15455;53.376;-6.262;2023-02-25T02:33:13;101797.75;;;2.94;100.00
28167;BME280;15455;53.376;-6.262;2023-02-25T02:47:43;101798.47;;;2.72;100.00
28167;BME280;15455;53.376;-6.262;2023-02-25T02:50:32;101809.28;;;2.65;100.00
28167;BME280;15455;53.376;-6.262;2023-02-25T02:53:25;101812.75;;;2.65;100.00
28167;BME280;15455;53.376;-6.262;2023-02-25T02:56:16;101827.88;;;2.77;100.00
28167;BME280;15455;53.376;-6.262;2023-02-25T02:59:11;101824.00;;;2.85;100.00
28167;BME280;15455;53.376;-6.262;2023-02-25T03:02:05;101832.06;;;2.93;100.00
28167;BME280;15455;53.376;-6.262;2023-02-25T03:04:59;101824.63;;;2.99;100.00
28167;BME280;15455;53.376;-6.262;2023-02-25T03:07:51;101831.78;;;3.05;100.00
28167;BME280;15455;53.376;-6.262;2023-02-25T03:10:39;101832.84;;;3.10;100.00
28167;BME280;15455;53.376;-6.262;2023-02-25T03:13:25;101833.72;;;3.10;100.00
28167;BME280;15455;53.376;-6.262;2023-02-25T03:16:20;101836.22;;;3.09;100.00
28167;BME280;15455;53.376;-6.262;2023-02-25T03:19:21;101831.59;;;3.02;100.00
28167;BME280;15455;53.376;-6.262;2023-02-25T03:22:12;101835.75;;;2.98;100.00
28167;BME280;15455;53.376;-6.262;2023-02-25T03:27:50;101831.66;;;2.84;100.00
28167;BME280;15455;53.376;-6.262;2023-02-25T03:30:55;101840.78;;;2.77;100.00
28167;BME280;15455;53.376;-6.262;2023-02-25T03:34:17;101837.63;;;2.83;100.00
28167;BME280;15455;53.376;-6.262;2023-02-25T03:37:10;101836.53;;;2.77;100.00
28167;BME280;15455;53.376;-6.262;2023-02-25T03:40:02;101827.69;;;2.72;100.00
28167;BME280;15455;53.376;-6.262;2023-02-25T03:43:22;101831.72;;;2.67;100.00
28167;BME280;15455;53.376;-6.262;2023-02-25T03:46:11;101834.94;;;2.62;100.00
28167;BME280;15455;53.376;-6.262;2023-02-25T03:49:00;101845.22;;;2.62;100.00
28167;BME280;15455;53.376;-6.262;2023-02-25T03:51:48;101847.13;;;2.66;100.00
28167;BME280;15455;53.376;-6.262;2023-02-25T03:54:37;101845.31;;;2.63;100.00
28167;BME280;15455;53.376;-6.262;2023-02-25T03:57:26;101848.81;;;2.65;100.00
28167;BME280;15455;53.376;-6.262;2023-02-25T04:00:24;101858.81;;;2.77;100.00
28167;BME280;15455;53.376;-6.262;2023-02-25T04:03:10;101861.09;;;2.89;100.00
28167;BME280;15455;53.376;-6.262;2023-02-25T04:05:57;101863.47;;;3.02;100.00
28167;BME280;15455;53.376;-6.262;2023-02-25T04:08:43;101861.22;;;3.10;100.00
28167;BME280;15455;53.376;-6.262;2023-02-25T04:11:28;101867.56;;;3.17;100.00
28167;BME280;15455;53.376;-6.262;2023-02-25T04:14:14;101872.19;;;3.24;100.00
28167;BME280;15455;53.376;-6.262;2023-02-25T04:17:00;101868.03;;;3.27;100.00
28167;BME280;15455;53.376;-6.262;2023-02-25T04:19:46;101867.34;;;3.32;100.00
28167;BME280;15455;53.376;-6.262;2023-02-25T04:22:32;101870.13;;;3.36;100.00
28167;BME280;15455;53.376;-6.262;2023-02-25T04:25:18;101863.50;;;3.41;100.00
28167;BME280;15455;53.376;-6.262;2023-02-25T04:28:04;101871.56;;;3.49;100.00
28167;BME280;15455;53.376;-6.262;2023-02-25T04:30:49;101877.00;;;3.55;100.00
28167;BME280;15455;53.376;-6.262;2023-02-25T04:33:35;101878.16;;;3.62;100.00
28167;BME280;15455;53.376;-6.262;2023-02-25T04:36:34;101870.50;;;3.63;100.00
28167;BME280;15455;53.376;-6.262;2023-02-25T04:39:19;101869.00;;;3.69;100.00
28167;BME280;15455;53.376;-6.262;2023-02-25T04:42:04;101865.53;;;3.68;100.00
28167;BME280;15455;53.376;-6.262;2023-02-25T04:44:50;101870.69;;;3.68;100.00
28167;BME280;15455;53.376;-6.262;2023-02-25T04:47:36;101875.91;;;3.70;100.00
28167;BME280;15455;53.376;-6.262;2023-02-25T04:50:22;101871.66;;;3.70;100.00
28167;BME280;15455;53.376;-6.262;2023-02-25T04:53:08;101888.03;;;3.71;100.00
28167;BME280;15455;53.376;-6.262;2023-02-25T04:55:53;101885.44;;;3.71;100.00
28167;BME280;15455;53.376;-6.262;2023-02-25T04:58:39;101889.84;;;3.73;100.00
28167;BME280;15455;53.376;-6.262;2023-02-25T05:01:24;101893.38;;;3.75;100.00
28167;BME280;15455;53.376;-6.262;2023-02-25T05:04:10;101906.41;;;3.78;100.00
28167;BME280;15455;53.376;-6.262;2023-02-25T05:06:55;101905.00;;;3.85;100.00
28167;BME280;15455;53.376;-6.262;2023-02-25T05:09:40;101903.91;;;3.99;100.00
28167;BME280;15455;53.376;-6.262;2023-02-25T05:12:25;101905.38;;;4.14;100.00
28167;BME280;15455;53.376;-6.262;2023-02-25T05:15:11;101902.34;;;4.24;100.00
28167;BME280;15455;53.376;-6.262;2023-02-25T05:17:57;101888.88;;;4.31;100.00
28167;BME280;15455;53.376;-6.262;2023-02-25T05:20:46;101891.53;;;4.33;100.00
28167;BME280;15455;53.376;-6.262;2023-02-25T05:23:32;101883.88;;;4.36;100.00
28167;BME280;15455;53.376;-6.262;2023-02-25T05:26:19;101884.84;;;4.38;100.00
28167;BME280;15455;53.376;-6.262;2023-02-25T05:29:08;101881.56;;;4.42;100.00
28167;BME280;15455;53.376;-6.262;2023-02-25T05:31:53;101880.78;;;4.45;100.00
28167;BME280;15455;53.376;-6.262;2023-02-25T05:34:39;101868.78;;;4.45;100.00
28167;BME280;15455;53.376;-6.262;2023-02-25T05:37:25;101860.28;;;4.48;100.00
28167;BME280;15455;53.376;-6.262;2023-02-25T05:40:11;101861.25;;;4.51;100.00
28167;BME280;15455;53.376;-6.262;2023-02-25T05:42:58;101855.16;;;4.49;100.00
28167;BME280;15455;53.376;-6.262;2023-02-25T05:45:43;101861.19;;;4.50;100.00
28167;BME280;15455;53.376;-6.262;2023-02-25T05:48:30;101857.75;;;4.49;100.00
28167;BME280;15455;53.376;-6.262;2023-02-25T05:51:18;101861.16;;;4.48;100.00
28167;BME280;15455;53.376;-6.262;2023-02-25T05:54:05;101860.28;;;4.48;100.00
28167;BME280;15455;53.376;-6.262;2023-02-25T05:56:51;101855.09;;;4.48;100.00
28167;BME280;15455;53.376;-6.262;2023-02-25T05:59:37;101854.03;;;4.43;100.00
28167;BME280;15455;53.376;-6.262;2023-02-25T06:02:22;101858.50;;;4.47;100.00
28167;BME280;15455;53.376;-6.262;2023-02-25T06:05:08;101855.09;;;4.48;100.00
28167;BME280;15455;53.376;-6.262;2023-02-25T06:07:53;101859.19;;;4.43;100.00
28167;BME280;15455;53.376;-6.262;2023-02-25T06:10:39;101860.91;;;4.42;100.00
28167;BME280;15455;53.376;-6.262;2023-02-25T06:13:25;101868.72;;;4.44;100.00
28167;BME280;15455;53.376;-6.262;2023-02-25T06:16:11;101867.06;;;4.46;100.00
28167;BME280;15455;53.376;-6.262;2023-02-25T06:18:57;101865.50;;;4.49;100.00
28167;BME280;15455;53.376;-6.262;2023-02-25T06:21:43;101863.03;;;4.52;100.00
28167;BME280;15455;53.376;-6.262;2023-02-25T06:24:28;101863.03;;;4.52;100.00
28167;BME280;15455;53.376;-6.262;2023-02-25T06:27:14;101864.88;;;4.55;100.00
28167;BME280;15455;53.376;-6.262;2023-02-25T06:30:00;101870.03;;;4.55;100.00
28167;BME280;15455;53.376;-6.262;2023-02-25T06:32:46;101867.44;;;4.55;100.00
28167;BME280;15455;53.376;-6.262;2023-02-25T06:35:33;101876.09;;;4.56;100.00
28167;BME280;15455;53.376;-6.262;2023-02-25T06:38:20;101882.13;;;4.56;100.00
28167;BME280;15455;53.376;-6.262;2023-02-25T06:41:11;101881.31;;;4.57;100.00
28167;BME280;15455;53.376;-6.262;2023-02-25T06:43:59;101873.56;;;4.57;100.00
28167;BME280;15455;53.376;-6.262;2023-02-25T06:46:45;101877.00;;;4.58;100.00
28167;BME280;15455;53.376;-6.262;2023-02-25T06:49:30;101876.19;;;4.59;100.00
28167;BME280;15455;53.376;-6.262;2023-02-25T06:52:16;101877.78;;;4.55;100.00
28167;BME280;15455;53.376;-6.262;2023-02-25T06:55:01;101892.28;;;4.51;100.00
28167;BME280;15455;53.376;-6.262;2023-02-25T06:57:51;101892.16;;;4.48;100.00
28167;BME280;15455;53.376;-6.262;2023-02-25T07:00:39;101895.63;;;4.49;100.00
28167;BME280;15455;53.376;-6.262;2023-02-25T07:03:27;101906.03;;;4.50;100.00
28167;BME280;15455;53.376;-6.262;2023-02-25T07:06:12;101905.16;;;4.50;100.00
28167;BME280;15455;53.376;-6.262;2023-02-25T07:09:00;101899.91;;;4.48;100.00
28167;BME280;15455;53.376;-6.262;2023-02-25T07:11:45;101910.25;;;4.48;100.00
28167;BME280;15455;53.376;-6.262;2023-02-25T07:14:30;101912.09;;;4.51;100.00
28167;BME280;15455;53.376;-6.262;2023-02-25T07:17:16;101907.78;;;4.51;100.00
28167;BME280;15455;53.376;-6.262;2023-02-25T07:20:02;101908.81;;;4.55;100.00
28167;BME280;15455;53.376;-6.262;2023-02-25T07:22:47;101908.81;;;4.55;100.00
28167;BME280;15455;53.376;-6.262;2023-02-25T07:25:33;101915.78;;;4.58;100.00
28167;BME280;15455;53.376;-6.262;2023-02-25T07:28:18;101918.38;;;4.58;100.00
28167;BME280;15455;53.376;-6.262;2023-02-25T07:31:13;101926.13;;;4.58;100.00
28167;BME280;15455;53.376;-6.262;2023-02-25T07:33:59;101925.19;;;4.56;100.00
28167;BME280;15455;53.376;-6.262;2023-02-25T07:36:47;101923.53;;;4.58;100.00
28167;BME280;15455;53.376;-6.262;2023-02-25T07:39:33;101923.53;;;4.58;100.00
28167;BME280;15455;53.376;-6.262;2023-02-25T07:42:18;101930.38;;;4.56;100.00
28167;BME280;15455;53.376;-6.262;2023-02-25T07:45:05;101926.97;;;4.57;100.00
28167;BME280;15455;53.376;-6.262;2023-02-25T07:47:52;101925.31;;;4.59;100.00
28167;BME280;15455;53.376;-6.262;2023-02-25T07:50:37;101927.84;;;4.57;100.00
28167;BME280;15455;53.376;-6.262;2023-02-25T07:53:23;101925.44;;;4.62;100.00
28167;BME280;15455;53.376;-6.262;2023-02-25T07:56:09;101928.03;;;4.62;100.00
28167;BME280;15455;53.376;-6.262;2023-02-25T07:58:55;101937.69;;;4.66;100.00
28167;BME280;15455;53.376;-6.262;2023-02-25T08:01:40;101936.88;;;4.67;100.00
28167;BME280;15455;53.376;-6.262;2023-02-25T08:04:25;101942.97;;;4.69;100.00
28167;BME280;15455;53.376;-6.262;2023-02-25T08:07:12;101946.53;;;4.71;100.00
28167;BME280;15455;53.376;-6.262;2023-02-25T08:09:58;101947.47;;;4.73;100.00
28167;BME280;15455;53.376;-6.262;2023-02-25T08:12:43;101946.59;;;4.73;100.00
28167;BME280;15455;53.376;-6.262;2023-02-25T08:15:29;101944.06;;;4.74;100.00
28167;BME280;15455;53.376;-6.262;2023-02-25T08:18:14;101955.34;;;4.76;100.00
28167;BME280;15455;53.376;-6.262;2023-02-25T08:21:00;101960.69;;;4.81;100.00
28167;BME280;15455;53.376;-6.262;2023-02-25T08:23:47;101954.81;;;4.85;100.00
28167;BME280;15455;53.376;-6.262;2023-02-25T08:26:33;101958.38;;;4.87;100.00
28167;BME280;15455;53.376;-6.262;2023-02-25T08:29:19;101961.91;;;4.89;100.00
28167;BME280;15455;53.376;-6.262;2023-02-25T08:32:05;101957.75;;;4.93;100.00
28167;BME280;15455;53.376;-6.262;2023-02-25T08:34:52;101963.91;;;4.96;100.00
28167;BME280;15455;53.376;-6.262;2023-02-25T08:37:37;101973.50;;;4.99;100.00
28167;BME280;15455;53.376;-6.262;2023-02-25T08:40:23;101974.50;;;5.02;100.00
28167;BME280;15455;53.376;-6.262;2023-02-25T08:43:09;101968.56;;;5.05;100.00
28167;BME280;15455;53.376;-6.262;2023-02-25T08:45:55;101970.41;;;5.08;100.00
28167;BME280;15455;53.376;-6.262;2023-02-25T08:48:41;101974.50;;;5.02;100.00
28167;BME280;15455;53.376;-6.262;2023-02-25T08:51:27;101973.50;;;4.99;100.00
28167;BME280;15455;53.376;-6.262;2023-02-25T08:54:18;101972.75;;;5.01;100.00
28167;BME280;15455;53.376;-6.262;2023-02-25T08:57:04;101974.69;;;5.07;100.00
28167;BME280;15455;53.376;-6.262;2023-02-25T08:59:50;101971.31;;;5.10;100.00
28167;BME280;15455;53.376;-6.262;2023-02-25T09:02:37;101970.50;;;5.11;100.00
28167;BME280;15455;53.376;-6.262;2023-02-25T09:05:22;101967.47;;;5.21;100.00
28167;BME280;15455;53.376;-6.262;2023-02-25T09:08:08;101972.22;;;5.33;100.00
28167;BME280;15455;53.376;-6.262;2023-02-25T09:10:54;101972.84;;;5.48;100.00
28167;BME280;15455;53.376;-6.262;2023-02-25T09:13:39;101969.13;;;5.64;100.00
28167;BME280;15455;53.376;-6.262;2023-02-25T09:16:27;101970.56;;;5.80;100.00
28167;BME280;15455;53.376;-6.262;2023-02-25T09:19:13;101976.22;;;5.93;100.00
28167;BME280;15455;53.376;-6.262;2023-02-25T09:22:02;101965.84;;;5.93;100.00
28167;BME280;15455;53.376;-6.262;2023-02-25T09:24:47;101979.47;;;5.87;100.00
28167;BME280;15455;53.376;-6.262;2023-02-25T09:27:33;101972.19;;;5.77;100.00
28167;BME280;15455;53.376;-6.262;2023-02-25T09:30:18;101985.47;;;5.63;100.00
28167;BME280;15455;53.376;-6.262;2023-02-25T09:33:04;101989.31;;;5.50;100.00
28167;BME280;15455;53.376;-6.262;2023-02-25T09:35:50;101991.72;;;5.46;100.00
28167;BME280;15455;53.376;-6.262;2023-02-25T09:38:38;101986.47;;;5.44;100.00
28167;BME280;15455;53.376;-6.262;2023-02-25T09:41:38;101982.91;;;5.41;100.00
28167;BME280;15455;53.376;-6.262;2023-02-25T09:44:31;101992.19;;;5.35;100.00
28167;BME280;15455;53.376;-6.262;2023-02-25T09:47:31;101993.16;;;5.37;100.00
28167;BME280;15455;53.376;-6.262;2023-02-25T09:50:25;101998.44;;;5.41;100.00
28167;BME280;15455;53.376;-6.262;2023-02-25T09:53:18;101998.59;;;5.45;100.00
28167;BME280;15455;53.376;-6.262;2023-02-25T09:56:07;102003.97;;;5.50;100.00
28167;BME280;15455;53.376;-6.262;2023-02-25T09:58:56;102004.97;;;5.53;100.00
28167;BME280;15455;53.376;-6.262;2023-02-25T10:02:21;102004.34;;;5.59;100.00
28167;BME280;15455;53.376;-6.262;2023-02-25T10:05:37;101998.06;;;5.77;100.00
28167;BME280;15455;53.376;-6.262;2023-02-25T10:08:35;101999.28;;;6.09;100.00
28167;BME280;15455;53.376;-6.262;2023-02-25T10:11:31;101989.53;;;6.26;100.00
28167;BME280;15455;53.376;-6.262;2023-02-25T10:26:58;102023.34;;;5.60;100.00
28167;BME280;15455;53.376;-6.262;2023-02-25T10:29:50;102012.91;;;5.58;100.00
28167;BME280;15455;53.376;-6.262;2023-02-25T10:32:38;102014.75;;;5.61;100.00
28167;BME280;15455;53.376;-6.262;2023-02-25T10:35:28;102020.97;;;5.66;100.00
28167;BME280;15455;53.376;-6.262;2023-02-25T10:38:16;102015.72;;;5.64;100.00
28167;BME280;15455;53.376;-6.262;2023-02-25T10:41:01;102015.69;;;5.63;100.00
28167;BME280;15455;53.376;-6.262;2023-02-25T10:43:49;102014.03;;;5.65;100.00
28167;BME280;15455;53.376;-6.262;2023-02-25T10:49:25;102026.03;;;5.63;100.00
28167;BME280;15455;53.376;-6.262;2023-02-25T10:52:18;102025.81;;;5.56;100.00
28167;BME280;15455;53.376;-6.262;2023-02-25T10:55:04;102027.22;;;5.48;100.00
28167;BME280;15455;53.376;-6.262;2023-02-25T10:58:27;102022.84;;;5.47;100.00
28167;BME280;15455;53.376;-6.262;2023-02-25T11:01:19;102030.56;;;5.46;100.00
28167;BME280;15455;53.376;-6.262;2023-02-25T11:04:14;102031.22;;;5.63;100.00
28167;BME280;15455;53.376;-6.262;2023-02-25T11:10:22;102035.91;;;6.18;100.00
28167;BME280;15455;53.376;-6.262;2023-02-25T11:13:26;102038.72;;;6.49;100.00
28167;BME280;15455;53.376;-6.262;2023-02-25T11:16:13;102030.16;;;6.77;100.00
28167;BME280;15455;53.376;-6.262;2023-02-25T11:19:00;102020.84;;;6.82;100.00
28167;BME280;15455;53.376;-6.262;2023-02-25T11:21:46;102016.56;;;6.84;100.00
28167;BME280;15455;53.376;-6.262;2023-02-25T11:24:34;102006.28;;;6.87;100.00
28167;BME280;15455;53.376;-6.262;2023-02-25T11:27:31;102014.81;;;7.10;100.00
28167;BME280;15455;53.376;-6.262;2023-02-25T11:30:25;102016.50;;;7.36;100.00
28167;BME280;15455;53.376;-6.262;2023-02-25T11:33:23;102022.38;;;7.30;100.00
28167;BME280;15455;53.376;-6.262;2023-02-25T11:36:10;102027.75;;;7.09;100.00
28167;BME280;15455;53.376;-6.262;2023-02-25T11:39:17;102021.44;;;7.01;100.00
28167;BME280;15455;53.376;-6.262;2023-02-25T11:42:21;102020.88;;;6.84;100.00
28167;BME280;15455;53.376;-6.262;2023-02-25T11:45:15;102016.72;;;6.89;100.00
28167;BME280;15455;53.376;-6.262;2023-02-25T11:48:02;102025.00;;;7.04;100.00
28167;BME280;15455;53.376;-6.262;2023-02-25T11:53:53;102033.91;;;7.38;100.00
28167;BME280;15455;53.376;-6.262;2023-02-25T11:56:50;102042.16;;;7.26;100.00
28167;BME280;15455;53.376;-6.262;2023-02-25T11:59:43;102043.22;;;7.06;100.00
28167;BME280;15455;53.376;-6.262;2023-02-25T12:02:43;102035.09;;;6.95;100.00
28167;BME280;15455;53.376;-6.262;2023-02-25T12:05:51;102040.09;;;7.16;100.00
28167;BME280;15455;53.376;-6.262;2023-02-25T12:08:52;102033.69;;;7.32;100.00
28167;BME280;15455;53.376;-6.262;2023-02-25T12:20:45;102037.94;;;8.16;100.00
28167;BME280;15455;53.376;-6.262;2023-02-25T12:23:56;102032.75;;;8.16;100.00
28167;BME280;15455;53.376;-6.262;2023-02-25T12:51:26;102035.59;;;6.83;100.00
28167;BME280;15455;53.376;-6.262;2023-02-25T13:12:17;102021.72;;;8.25;100.00
28167;BME280;15455;53.376;-6.262;2023-02-25T13:15:16;102021.13;;;8.04;100.00
28167;BME280;15455;53.376;-6.262;2023-02-25T13:18:21;102026.53;;;8.11;100.00
28167;BME280;15455;53.376;-6.262;2023-02-25T13:24:49;102020.03;;;7.67;100.00
28167;BME280;15455;53.376;-6.262;2023-02-25T13:30:50;102021.72;;;7.64;100.00
28167;BME280;15455;53.376;-6.262;2023-02-25T13:37:15;102003.81;;;8.06;100.00
28167;BME280;15455;53.376;-6.262;2023-02-25T13:55:44;102011.91;;;7.27;100.00
28167;BME280;15455;53.376;-6.262;2023-02-25T14:01:46;102009.16;;;6.69;100.00
28167;BME280;15455;53.376;-6.262;2023-02-25T14:10:41;102002.19;;;6.42;100.00
28167;BME280;15455;53.376;-6.262;2023-02-25T14:13:41;102000.25;;;6.37;100.00
28167;BME280;15455;53.376;-6.262;2023-02-25T14:20:09;102012.91;;;7.32;100.00
28167;BME280;15455;53.376;-6.262;2023-02-25T14:23:15;102017.50;;;7.41;100.00
28167;BME280;15455;53.376;-6.262;2023-02-25T14:38:11;102021.44;;;6.49;100.00
28167;BME280;15455;53.376;-6.262;2023-02-25T14:44:01;102008.56;;;6.52;100.00
28167;BME280;15455;53.376;-6.262;2023-02-25T14:46:57;102009.00;;;6.39;100.00
28167;BME280;15455;53.376;-6.262;2023-02-25T15:23:15;102013.00;;;6.55;100.00
28167;BME280;15455;53.376;-6.262;2023-02-25T15:26:24;102017.63;;;6.64;100.00
28167;BME280;15455;53.376;-6.262;2023-02-25T15:32:29;102026.47;;;6.20;100.00
28167;BME280;15455;53.376;-6.262;2023-02-25T15:38:37;102020.63;;;6.26;100.00
28167;BME280;15455;53.376;-6.262;2023-02-25T15:47:21;102018.47;;;5.91;100.00
28167;BME280;15455;53.376;-6.262;2023-02-25T15:50:08;102012.59;;;5.73;100.00
28167;BME280;15455;53.376;-6.262;2023-02-25T15:52:56;102019.28;;;5.66;100.00
28167;BME280;15455;53.376;-6.262;2023-02-25T15:55:43;102018.31;;;5.64;100.00
28167;BME280;15455;53.376;-6.262;2023-02-25T16:01:47;102029.56;;;5.87;100.00
28167;BME280;15455;53.376;-6.262;2023-02-25T16:08:29;102018.53;;;6.91;100.00
28167;BME280;15455;53.376;-6.262;2023-02-25T16:11:30;102022.19;;;7.24;100.00
28167;BME280;15455;53.376;-6.262;2023-02-25T16:14:26;102015.63;;;7.08;100.00
28167;BME280;15455;53.376;-6.262;2023-02-25T16:23:08;102042.06;;;5.98;100.00
28167;BME280;15455;53.376;-6.262;2023-02-25T16:35:32;102059.00;;;5.89;100.00
28167;BME280;15455;53.376;-6.262;2023-02-25T16:38:37;102063.22;;;6.08;100.00
28167;BME280;15455;53.376;-6.262;2023-02-25T16:41:27;102061.69;;;6.15;100.00
28167;BME280;15455;53.376;-6.262;2023-02-25T16:44:44;102062.50;;;6.13;100.00
28167;BME280;15455;53.376;-6.262;2023-02-25T16:47:34;102063.03;;;6.04;100.00
28167;BME280;15455;53.376;-6.262;2023-02-25T16:50:22;102063.75;;;6.00;100.00
28167;BME280;15455;53.376;-6.262;2023-02-25T16:53:15;102069.53;;;5.94;100.00
28167;BME280;15455;53.376;-6.262;2023-02-25T16:56:01;102068.78;;;5.74;100.00
28167;BME280;15455;53.376;-6.262;2023-02-25T17:01:53;102082.38;;;5.47;100.00
28167;BME280;15455;53.376;-6.262;2023-02-25T17:04:47;102074.44;;;5.43;100.00
28167;BME280;15455;53.376;-6.262;2023-02-25T17:07:34;102077.22;;;5.47;100.00
28167;BME280;15455;53.376;-6.262;2023-02-25T17:10:26;102074.19;;;5.57;100.00
28167;BME280;15455;53.376;-6.262;2023-02-25T17:13:21;102075.06;;;5.58;100.00
28167;BME280;15455;53.376;-6.262;2023-02-25T17:16:29;102084.47;;;5.56;100.00
28167;BME280;15455;53.376;-6.262;2023-02-25T17:19:16;102088.78;;;5.55;100.00
28167;BME280;15455;53.376;-6.262;2023-02-25T17:22:06;102088.66;;;5.52;100.00
28167;BME280;15455;53.376;-6.262;2023-02-25T17:24:54;102087.56;;;5.47;100.00
28167;BME280;15455;53.376;-6.262;2023-02-25T17:27:41;102085.63;;;5.42;100.00
28167;BME280;15455;53.376;-6.262;2023-02-25T17:30:42;102099.53;;;5.44;100.00
28167;BME280;15455;53.376;-6.262;2023-02-25T17:33:31;102096.94;;;5.44;100.00
28167;BME280;15455;53.376;-6.262;2023-02-25T17:36:24;102097.56;;;5.38;100.00
28167;BME280;15455;53.376;-6.262;2023-02-25T17:39:17;102094.91;;;5.36;100.00
28167;BME280;15455;53.376;-6.262;2023-02-25T17:42:27;102093.03;;;5.32;100.00
28167;BME280;15455;53.376;-6.262;2023-02-25T17:48:28;102101.22;;;5.22;100.00
28167;BME280;15455;53.376;-6.262;2023-02-25T17:51:14;102106.97;;;5.15;100.00
28167;BME280;15455;53.376;-6.262;2023-02-25T17:54:05;102107.78;;;5.14;100.00
28167;BME280;15455;53.376;-6.262;2023-02-25T17:59:56;102107.03;;;5.16;100.00
28167;BME280;15455;53.376;-6.262;2023-02-25T18:02:41;102107.16;;;5.19;100.00
28167;BME280;15455;53.376;-6.262;2023-02-25T18:05:30;102110.78;;;5.23;100.00
28167;BME280;15455;53.376;-6.262;2023-02-25T18:08:22;102118.53;;;5.23;100.00
28167;BME280;15455;53.376;-6.262;2023-02-25T18:11:26;102120.28;;;5.24;100.00
28167;BME280;15455;53.376;-6.262;2023-02-25T18:14:42;102121.19;;;5.25;100.00
28167;BME280;15455;53.376;-6.262;2023-02-25T18:17:35;102130.69;;;5.26;100.00
28167;BME280;15455;53.376;-6.262;2023-02-25T18:23:19;102130.84;;;5.29;100.00